Time,TemperatureF,DewpointF,PressureIn,WindDirection,WindDirectionDegrees,WindSpeedMPH,WindSpeedGustMPH,Humidity,HourlyPrecipIn,Conditions,Clouds,dailyrainin,SoftwareType,DateUTC
2013-02-05 00:00:00,47.5,47.5,29.85,WSW,249,0.0,0.0,100,0.00,,---,0.00,VWS V14.01,2013-02-05 08:00:00,
2013-02-05 00:05:00,47.5,47.5,29.85,WSW,249,0.0,0.0,100,0.00,,---,0.00,VWS V14.01,2013-02-05 08:05:00,
2013-02-05 00:10:00,47.5,47.5,29.85,WSW,249,0.0,0.0,100,0.00,,---,0.00,VWS V14.01,2013-02-05 08:10:00,
2013-02-05 00:15:00,47.5,47.5,29.85,WSW,249,0.0,0.0,100,0.00,,---,0.00,VWS V14.01,2013-02-05 08:15:00,
2013-02-05 00:20:00,47.5,47.5,29.85,WSW,249,0.0,0.0,100,0.00,,---,0.00,VWS V14.01,2013-02-05 08:20:00,
2013-02-05 00:25:00,47.3,47.3,29.85,West,273,0.0,0.0,100,0.00,,---,0.00,VWS V14.01,2013-02-05 08:25:00,
2013-02-05 00:30:00,47.3,47.3,29.85,West,273,0.0,0.0,100,0.00,,---,0.00,VWS V14.01,2013-02-05 08:30:00,
2013-02-05 00:35:00,47.3,47.3,29.85,NW,317,0.0,0.0,100,0.00,,---,0.00,VWS V14.01,2013-02-05 08:35:00,
2013-02-05 00:40:00,47.3,47.3,29.85,West,271,0.0,0.0,100,0.00,,---,0.00,VWS V14.01,2013-02-05 08:40:00,
2013-02-05 00:45:00,47.1,47.1,29.85,WNW,284,2.7,2.7,100,0.00,,---,0.00,VWS V14.01,2013-02-05 08:45:00,
2013-02-05 00:50:00,47.1,47.1,29.85,West,266,4.0,4.0,100,0.00,,---,0.00,VWS V14.01,2013-02-05 08:50:00,
2013-02-05 00:55:00,47.1,47.1,29.85,WSW,258,2.7,2.7,100,0.00,,---,0.00,VWS V14.01,2013-02-05 08:55:00,
2013-02-05 01:00:00,47.3,47.3,29.85,WSW,238,3.1,3.1,100,0.00,,---,0.00,VWS V14.01,2013-02-05 09:00:00,
2013-02-05 01:05:00,47.5,47.5,29.85,WNW,284,0.0,4.9,100,0.00,,---,0.00,VWS V14.01,2013-02-05 09:05:00,
2013-02-05 01:10:00,47.7,47.7,29.85,WSW,254,3.1,6.3,100,0.00,,---,0.00,VWS V14.01,2013-02-05 09:10:00,
2013-02-05 01:15:00,47.7,47.7,29.85,West,271,0.0,0.0,100,0.00,,---,0.00,VWS V14.01,2013-02-05 09:15:00,
2013-02-05 01:20:00,47.7,47.7,29.85,WSW,244,2.7,4.0,100,0.00,,---,0.00,VWS V14.01,2013-02-05 09:20:00,
2013-02-05 01:25:00,48.2,48.2,29.85,West,267,0.0,2.7,100,0.00,,---,0.00,VWS V14.01,2013-02-05 09:25:00,
2013-02-05 01:30:00,48.4,48.4,29.85,SW,233,2.7,2.7,100,0.00,,---,0.00,VWS V14.01,2013-02-05 09:30:00,
2013-02-05 01:35:00,48.4,48.4,29.85,West,263,0.0,0.0,100,0.00,,---,0.00,VWS V14.01,2013-02-05 09:35:00,
2013-02-05 01:40:00,48.6,48.6,29.85,SSW,211,0.0,0.0,100,0.00,,---,0.00,VWS V14.01,2013-02-05 09:40:00,
2013-02-05 01:45:00,48.6,48.6,29.85,WSW,239,0.0,0.0,100,0.00,,---,0.00,VWS V14.01,2013-02-05 09:45:00,
2013-02-05 01:50:00,48.6,48.6,29.85,WSW,247,0.0,0.0,100,0.00,,---,0.00,VWS V14.01,2013-02-05 09:50:00,
2013-02-05 01:55:00,48.6,48.6,29.85,WSW,247,0.0,0.0,100,0.00,,---,0.00,VWS V14.01,2013-02-05 09:55:00,
2013-02-05 02:00:00,48.6,48.6,29.85,WSW,247,0.0,0.0,100,0.00,,---,0.28,VWS V14.01,2013-02-05 10:00:00,
2013-02-05 02:05:00,48.6,48.6,29.85,WSW,247,0.0,0.0,100,0.00,,---,0.00,VWS V14.01,2013-02-05 10:05:00,
2013-02-05 02:10:00,48.6,48.6,29.85,West,272,3.6,5.4,100,0.00,,---,0.00,VWS V14.01,2013-02-05 10:10:00,
2013-02-05 02:15:00,48.6,48.6,29.85,West,260,0.0,0.0,100,0.00,,---,0.00,VWS V14.01,2013-02-05 10:15:00,
2013-02-05 02:20:00,48.6,48.6,29.85,SW,226,0.0,0.0,100,0.00,,---,0.00,VWS V14.01,2013-02-05 10:20:00,
2013-02-05 02:25:00,48.6,48.6,29.85,SE,126,0.0,0.0,100,0.00,,---,0.00,VWS V14.01,2013-02-05 10:25:00,
2013-02-05 02:30:00,48.6,48.6,29.85,South,178,0.0,0.0,100,0.00,,---,0.00,VWS V14.01,2013-02-05 10:30:00,
2013-02-05 02:35:00,48.6,48.6,29.85,East,97,0.0,0.0,100,0.00,,---,0.00,VWS V14.01,2013-02-05 10:35:00,
2013-02-05 02:40:00,48.6,48.6,29.85,East,97,0.0,0.0,100,0.00,,---,0.00,VWS V14.01,2013-02-05 10:40:00,
2013-02-05 02:45:00,48.6,48.6,29.85,East,97,0.0,0.0,100,0.00,,---,0.00,VWS V14.01,2013-02-05 10:45:00,
2013-02-05 02:50:00,48.6,48.6,29.85,SW,228,0.0,3.6,100,0.00,,---,0.00,VWS V14.01,2013-02-05 10:50:00,
2013-02-05 02:55:00,48.6,48.6,29.85,SW,231,0.0,0.0,100,0.00,,---,0.00,VWS V14.01,2013-02-05 10:55:00,
2013-02-05 03:00:00,48.6,48.6,29.85,WSW,246,2.2,2.7,100,0.00,,---,0.00,VWS V14.01,2013-02-05 11:00:00,
2013-02-05 03:05:00,48.7,48.7,29.85,WSW,246,0.0,0.0,100,0.00,,---,0.00,VWS V14.01,2013-02-05 11:05:00,
2013-02-05 03:10:00,48.7,48.7,29.85,WSW,246,0.0,0.0,100,0.00,,---,0.00,VWS V14.01,2013-02-05 11:10:00,
2013-02-05 03:15:00,48.7,48.7,29.85,NW,305,0.0,0.0,100,0.00,,---,0.00,VWS V14.01,2013-02-05 11:15:00,
2013-02-05 03:20:00,48.7,48.7,29.82,ESE,119,0.0,0.0,100,0.00,,---,0.00,VWS V14.01,2013-02-05 11:20:00,
2013-02-05 03:25:00,48.7,48.7,29.82,WSW,238,0.0,0.0,100,0.00,,---,0.00,VWS V14.01,2013-02-05 11:25:00,
2013-02-05 03:30:00,48.7,48.7,29.82,WSW,241,0.0,0.0,100,0.00,,---,0.00,VWS V14.01,2013-02-05 11:30:00,
2013-02-05 03:35:00,48.7,48.7,29.82,WSW,241,0.0,0.0,100,0.00,,---,0.00,VWS V14.01,2013-02-05 11:35:00,
2013-02-05 03:40:00,48.7,48.7,29.82,WSW,241,0.0,0.0,100,0.00,,---,0.00,VWS V14.01,2013-02-05 11:40:00,
2013-02-05 03:45:00,48.7,48.7,29.82,WSW,242,0.0,0.0,100,0.00,,---,0.00,VWS V14.01,2013-02-05 11:45:00,
2013-02-05 03:50:00,48.7,48.7,29.85,WSW,252,0.0,0.0,100,0.00,,---,0.00,VWS V14.01,2013-02-05 11:50:00,
2013-02-05 03:55:00,48.7,48.7,29.85,WSW,252,0.0,0.0,100,0.00,,---,0.00,VWS V14.01,2013-02-05 11:55:00,
2013-02-05 04:00:00,48.7,48.7,29.85,SSW,200,0.0,2.2,100,0.00,,---,0.28,VWS V14.01,2013-02-05 12:00:00,
2013-02-05 04:05:00,48.7,48.7,29.85,SSW,200,0.0,0.0,100,0.00,,---,0.00,VWS V14.01,2013-02-05 12:05:00,
2013-02-05 04:10:00,48.7,48.7,29.85,NW,308,0.0,0.0,100,0.00,,---,0.00,VWS V14.01,2013-02-05 12:10:00,
2013-02-05 04:15:00,48.7,48.7,29.85,NW,308,0.0,0.0,100,0.00,,---,0.00,VWS V14.01,2013-02-05 12:15:00,
2013-02-05 04:20:00,48.7,48.7,29.85,SSW,210,0.0,0.0,100,0.00,,---,0.00,VWS V14.01,2013-02-05 12:20:00,
2013-02-05 04:25:00,48.7,48.7,29.85,SSW,210,0.0,0.0,100,0.00,,---,0.00,VWS V14.01,2013-02-05 12:25:00,
2013-02-05 04:30:00,48.6,48.6,29.85,WSW,250,0.0,0.0,100,0.00,,---,0.00,VWS V14.01,2013-02-05 12:30:00,
2013-02-05 04:35:00,48.6,48.6,29.85,WSW,238,0.0,0.0,100,0.00,,---,0.00,VWS V14.01,2013-02-05 12:35:00,
2013-02-05 04:40:00,48.6,48.6,29.85,WSW,239,0.0,0.0,100,0.00,,---,0.00,VWS V14.01,2013-02-05 12:40:00,
2013-02-05 04:45:00,48.6,48.6,29.85,WSW,238,0.0,0.0,100,0.00,,---,0.00,VWS V14.01,2013-02-05 12:45:00,
2013-02-05 04:50:00,48.4,48.4,29.85,WSW,238,0.0,0.0,100,0.00,,---,0.00,VWS V14.01,2013-02-05 12:50:00,
2013-02-05 04:55:00,48.4,48.4,29.85,WSW,238,0.0,0.0,100,0.00,,---,0.00,VWS V14.01,2013-02-05 12:55:00,
2013-02-05 05:00:00,48.4,48.4,29.85,WSW,238,0.0,0.0,100,0.00,,---,0.00,VWS V14.01,2013-02-05 13:00:00,
2013-02-05 05:05:00,48.2,48.2,29.85,WSW,240,0.0,0.0,100,0.00,,---,0.00,VWS V14.01,2013-02-05 13:05:00,
2013-02-05 05:10:00,48.0,48.0,29.85,WSW,240,0.0,0.0,100,0.00,,---,0.00,VWS V14.01,2013-02-05 13:10:00,
2013-02-05 05:15:00,48.0,48.0,29.85,WSW,240,0.0,0.0,100,0.00,,---,0.00,VWS V14.01,2013-02-05 13:15:00,
2013-02-05 05:20:00,47.8,47.8,29.85,WSW,240,0.0,0.0,100,0.00,,---,0.00,VWS V14.01,2013-02-05 13:20:00,
2013-02-05 05:25:00,47.8,47.8,29.85,WSW,240,0.0,0.0,100,0.04,,---,0.04,VWS V14.01,2013-02-05 13:25:00,
2013-02-05 05:30:00,47.8,47.8,29.85,WSW,240,0.0,0.0,100,0.04,,---,0.04,VWS V14.01,2013-02-05 13:30:00,
2013-02-05 05:35:00,47.7,47.7,29.85,WSW,240,0.0,0.0,100,0.04,,---,0.04,VWS V14.01,2013-02-05 13:35:00,
2013-02-05 05:40:00,47.7,47.7,29.82,WSW,240,0.0,0.0,100,0.04,,---,0.04,VWS V14.01,2013-02-05 13:40:00,
2013-02-05 05:45:00,47.7,47.7,29.82,WSW,240,0.0,0.0,100,0.04,,---,0.04,VWS V14.01,2013-02-05 13:45:00,
2013-02-05 05:50:00,47.5,47.5,29.82,WSW,240,0.0,0.0,100,0.04,,---,0.04,VWS V14.01,2013-02-05 13:50:00,
2013-02-05 05:55:00,47.5,47.5,29.82,WSW,240,0.0,0.0,100,0.04,,---,0.04,VWS V14.01,2013-02-05 13:55:00,
2013-02-05 06:00:00,47.5,47.5,29.82,WSW,240,0.0,0.0,100,0.04,,---,0.04,VWS V14.01,2013-02-05 14:00:00,
2013-02-05 06:05:00,47.5,47.5,29.82,WSW,240,0.0,0.0,100,0.04,,---,0.04,VWS V14.01,2013-02-05 14:05:00,
2013-02-05 06:10:00,47.3,47.3,29.82,WSW,240,0.0,0.0,100,0.04,,---,0.04,VWS V14.01,2013-02-05 14:10:00,
2013-02-05 06:15:00,47.3,47.3,29.82,WSW,240,0.0,0.0,100,0.04,,---,0.04,VWS V14.01,2013-02-05 14:15:00,
2013-02-05 06:20:00,47.3,47.3,29.82,NNW,336,0.0,0.0,100,0.04,,---,0.04,VWS V14.01,2013-02-05 14:20:00,
2013-02-05 06:25:00,47.3,47.3,29.82,NNW,346,0.0,0.0,100,0.00,,---,0.04,VWS V14.01,2013-02-05 14:25:00,
2013-02-05 06:30:00,47.3,47.3,29.82,NNW,346,0.0,0.0,100,0.00,,---,0.04,VWS V14.01,2013-02-05 14:30:00,
2013-02-05 06:35:00,47.3,47.3,29.82,NNW,346,0.0,0.0,100,0.00,,---,0.04,VWS V14.01,2013-02-05 14:35:00,
2013-02-05 06:40:00,47.3,47.3,29.82,NNW,346,0.0,0.0,100,0.00,,---,0.04,VWS V14.01,2013-02-05 14:40:00,
2013-02-05 06:45:00,47.3,47.3,29.82,NNW,346,0.0,0.0,100,0.00,,---,0.04,VWS V14.01,2013-02-05 14:45:00,
2013-02-05 06:50:00,47.3,47.3,29.79,NNW,346,0.0,0.0,100,0.00,,---,0.04,VWS V14.01,2013-02-05 14:50:00,
2013-02-05 06:55:00,47.1,47.1,29.79,NNW,346,0.0,0.0,100,0.00,,---,0.04,VWS V14.01,2013-02-05 14:55:00,
2013-02-05 07:00:00,47.1,47.1,29.79,NNW,346,0.0,0.0,100,0.04,,---,0.08,VWS V14.01,2013-02-05 15:00:00,
2013-02-05 07:05:00,47.1,47.1,29.79,NNW,346,0.0,0.0,100,0.04,,---,0.08,VWS V14.01,2013-02-05 15:05:00,
2013-02-05 07:10:00,47.1,47.1,29.82,NNW,346,0.0,0.0,100,0.04,,---,0.08,VWS V14.01,2013-02-05 15:10:00,
2013-02-05 07:15:00,47.1,47.1,29.82,NNW,346,0.0,0.0,100,0.04,,---,0.08,VWS V14.01,2013-02-05 15:15:00,
2013-02-05 07:20:00,47.1,47.1,29.82,NNW,346,0.0,0.0,100,0.04,,---,0.08,VWS V14.01,2013-02-05 15:20:00,
2013-02-05 07:25:00,47.1,47.1,29.82,NNW,346,0.0,0.0,100,0.04,,---,0.08,VWS V14.01,2013-02-05 15:25:00,
2013-02-05 07:30:00,47.1,47.1,29.82,NNW,346,0.0,0.0,100,0.04,,---,0.08,VWS V14.01,2013-02-05 15:30:00,
2013-02-05 07:35:00,47.1,47.1,29.82,NNW,346,0.0,0.0,100,0.04,,---,0.08,VWS V14.01,2013-02-05 15:35:00,
2013-02-05 07:40:00,47.1,47.1,29.82,NNW,346,0.0,0.0,100,0.04,,---,0.08,VWS V14.01,2013-02-05 15:40:00,
2013-02-05 07:45:00,47.1,47.1,29.82,NNW,346,0.0,0.0,100,0.04,,---,0.28,VWS V14.01,2013-02-05 15:45:00,
2013-02-05 07:50:00,47.1,47.1,29.82,NNW,346,0.0,0.0,100,0.04,,---,0.08,VWS V14.01,2013-02-05 15:50:00,
2013-02-05 07:55:00,47.1,47.1,29.82,NNW,346,0.0,0.0,100,0.04,,---,0.08,VWS V14.01,2013-02-05 15:55:00,
2013-02-05 08:00:00,47.1,47.1,29.82,NNW,346,0.0,0.0,100,0.00,,---,0.08,VWS V14.01,2013-02-05 16:00:00,
2013-02-05 08:05:00,47.1,47.1,29.82,NNW,346,0.0,0.0,100,0.00,,---,0.08,VWS V14.01,2013-02-05 16:05:00,
2013-02-05 08:10:00,47.1,47.1,29.82,NNW,346,0.0,0.0,100,0.00,,---,0.08,VWS V14.01,2013-02-05 16:10:00,
2013-02-05 08:15:00,47.1,47.1,29.82,NNW,346,0.0,0.0,100,0.00,,---,0.08,VWS V14.01,2013-02-05 16:15:00,
2013-02-05 08:20:00,47.1,47.1,29.82,NNW,346,0.0,0.0,100,0.00,,---,0.08,VWS V14.01,2013-02-05 16:20:00,
2013-02-05 08:25:00,47.1,47.1,29.82,NNW,346,0.0,0.0,100,0.00,,---,0.08,VWS V14.01,2013-02-05 16:25:00,
2013-02-05 08:30:00,47.1,47.1,29.82,NNW,346,0.0,0.0,100,0.00,,---,0.08,VWS V14.01,2013-02-05 16:30:00,
2013-02-05 08:35:00,47.1,47.1,29.82,NNW,346,0.0,0.0,100,0.00,,---,0.08,VWS V14.01,2013-02-05 16:35:00,
2013-02-05 08:40:00,47.1,47.1,29.82,NNW,346,0.0,0.0,100,0.00,,---,0.08,VWS V14.01,2013-02-05 16:40:00,
2013-02-05 08:45:00,47.1,47.1,29.82,NNW,346,0.0,0.0,100,0.00,,---,0.08,VWS V14.01,2013-02-05 16:45:00,
2013-02-05 08:50:00,47.1,47.1,29.82,ESE,110,0.0,0.0,100,0.00,,---,0.08,VWS V14.01,2013-02-05 16:50:00,
2013-02-05 08:55:00,47.1,47.1,29.82,SE,142,0.0,0.0,100,0.00,,---,0.08,VWS V14.01,2013-02-05 16:55:00,
2013-02-05 09:00:00,47.1,47.1,29.82,SE,142,0.0,0.0,100,0.00,,---,0.08,VWS V14.01,2013-02-05 17:00:00,
2013-02-05 09:05:00,47.3,47.3,29.82,SE,142,0.0,0.0,100,0.00,,---,0.08,VWS V14.01,2013-02-05 17:05:00,
2013-02-05 09:10:00,47.3,47.3,29.82,SE,142,0.0,0.0,100,0.00,,---,0.08,VWS V14.01,2013-02-05 17:10:00,
2013-02-05 09:15:00,47.3,47.3,29.82,SW,232,0.0,2.2,100,0.00,,---,0.08,VWS V14.01,2013-02-05 17:15:00,
2013-02-05 09:20:00,47.5,47.5,29.82,SSW,203,0.0,0.0,100,0.00,,---,0.08,VWS V14.01,2013-02-05 17:20:00,
2013-02-05 09:25:00,47.5,47.5,29.82,South,179,0.0,0.0,100,0.00,,---,0.08,VWS V14.01,2013-02-05 17:25:00,
2013-02-05 09:30:00,47.7,47.7,29.82,West,268,0.0,0.0,100,0.00,,---,0.08,VWS V14.01,2013-02-05 17:30:00,
2013-02-05 09:35:00,47.7,47.7,29.82,West,268,0.0,0.0,100,0.00,,---,0.08,VWS V14.01,2013-02-05 17:35:00,
2013-02-05 09:40:00,47.7,47.7,29.82,SW,221,0.0,0.0,100,0.00,,---,0.08,VWS V14.01,2013-02-05 17:40:00,
2013-02-05 09:45:00,47.8,47.8,29.82,SW,221,0.0,0.0,100,0.00,,---,0.08,VWS V14.01,2013-02-05 17:45:00,
2013-02-05 09:50:00,47.8,47.8,29.82,SW,214,0.0,0.0,100,0.00,,---,0.08,VWS V14.01,2013-02-05 17:50:00,
2013-02-05 09:55:00,47.8,47.8,29.82,SW,214,0.0,0.0,100,0.00,,---,0.08,VWS V14.01,2013-02-05 17:55:00,
2013-02-05 10:00:00,48.0,48.0,29.82,SW,215,0.0,0.0,100,0.00,,---,0.08,VWS V14.01,2013-02-05 18:00:00,
2013-02-05 10:05:00,48.0,48.0,29.82,SW,215,0.0,0.0,100,0.00,,---,0.08,VWS V14.01,2013-02-05 18:05:00,
2013-02-05 10:10:00,48.2,48.2,29.82,SSE,153,0.0,0.0,100,0.00,,---,0.08,VWS V14.01,2013-02-05 18:10:00,
2013-02-05 10:15:00,48.2,48.2,29.82,SW,235,3.1,3.1,100,0.00,,---,0.08,VWS V14.01,2013-02-05 18:15:00,
2013-02-05 10:20:00,48.2,48.2,29.82,SW,234,4.0,4.0,100,0.00,,---,0.08,VWS V14.01,2013-02-05 18:20:00,
2013-02-05 10:25:00,48.4,48.4,29.82,SW,224,3.1,5.4,100,0.00,,---,0.08,VWS V14.01,2013-02-05 18:25:00,
2013-02-05 10:30:00,48.4,48.4,29.82,WNW,290,0.0,0.0,100,0.00,,---,0.08,VWS V14.01,2013-02-05 18:30:00,
2013-02-05 10:35:00,48.4,48.4,29.85,West,281,3.6,3.6,100,0.00,,---,0.08,VWS V14.01,2013-02-05 18:35:00,
2013-02-05 10:40:00,48.6,48.6,29.85,ESE,117,4.0,4.0,100,0.00,,---,0.08,VWS V14.01,2013-02-05 18:40:00,
2013-02-05 10:45:00,48.6,48.6,29.85,SW,218,0.0,0.0,100,0.00,,---,0.08,VWS V14.01,2013-02-05 18:45:00,
2013-02-05 10:50:00,48.7,48.7,29.85,SW,226,2.7,3.1,100,0.00,,---,0.08,VWS V14.01,2013-02-05 18:50:00,
2013-02-05 10:55:00,48.7,48.7,29.85,WSW,243,0.0,0.0,100,0.00,,---,0.08,VWS V14.01,2013-02-05 18:55:00,
2013-02-05 11:00:00,48.7,48.7,29.85,SSE,156,0.0,0.0,100,0.00,,---,0.08,VWS V14.01,2013-02-05 19:00:00,
2013-02-05 11:05:00,48.9,48.9,29.85,WSW,251,2.7,2.7,100,0.00,,---,0.08,VWS V14.01,2013-02-05 19:05:00,
2013-02-05 11:10:00,48.9,48.9,29.85,NW,326,0.0,0.0,100,0.00,,---,0.08,VWS V14.01,2013-02-05 19:10:00,
2013-02-05 11:15:00,49.1,49.1,29.85,NW,309,3.1,3.1,100,0.00,,---,0.08,VWS V14.01,2013-02-05 19:15:00,
2013-02-05 11:20:00,49.3,49.3,29.82,West,271,0.0,3.1,100,0.00,,---,0.08,VWS V14.01,2013-02-05 19:20:00,
2013-02-05 11:25:00,49.3,49.3,29.82,West,277,0.0,6.3,100,0.00,,---,0.08,VWS V14.01,2013-02-05 19:25:00,
2013-02-05 11:30:00,50.0,50.0,29.82,WSW,257,0.0,3.6,100,0.00,,---,0.08,VWS V14.01,2013-02-05 19:30:00,
2013-02-05 11:35:00,50.4,50.4,29.82,West,262,3.6,4.9,100,0.00,,---,0.08,VWS V14.01,2013-02-05 19:35:00,
2013-02-05 11:40:00,50.5,50.5,29.82,SW,227,2.7,2.7,100,0.00,,---,0.08,VWS V14.01,2013-02-05 19:40:00,
2013-02-05 11:45:00,50.7,50.7,29.82,WSW,248,3.1,3.1,100,0.00,,---,0.08,VWS V14.01,2013-02-05 19:45:00,
2013-02-05 11:50:00,50.7,50.7,29.82,SW,234,0.0,3.1,100,0.00,,---,0.08,VWS V14.01,2013-02-05 19:50:00,
2013-02-05 11:55:00,50.7,50.7,29.82,SSW,201,3.1,7.6,100,0.00,,---,0.08,VWS V14.01,2013-02-05 19:55:00,
2013-02-05 12:00:00,50.7,50.7,29.82,West,270,0.0,0.0,100,0.00,,---,0.08,VWS V14.01,2013-02-05 20:00:00,
2013-02-05 12:05:00,50.5,50.5,29.82,SSE,148,0.0,2.7,100,0.00,,---,0.08,VWS V14.01,2013-02-05 20:05:00,
2013-02-05 12:10:00,50.5,50.5,29.82,SW,227,4.0,4.0,100,0.00,,---,0.08,VWS V14.01,2013-02-05 20:10:00,
2013-02-05 12:15:00,50.5,50.5,29.82,WSW,238,5.4,5.4,100,0.00,,---,0.08,VWS V14.01,2013-02-05 20:15:00,
2013-02-05 12:20:00,50.5,50.5,29.82,WSW,249,2.2,3.1,100,0.00,,---,0.08,VWS V14.01,2013-02-05 20:20:00,
2013-02-05 12:25:00,50.5,50.5,29.82,WSW,243,3.6,3.6,100,0.00,,---,0.08,VWS V14.01,2013-02-05 20:25:00,
2013-02-05 12:30:00,50.5,50.5,29.82,NW,326,2.7,2.7,100,0.00,,---,0.08,VWS V14.01,2013-02-05 20:30:00,
2013-02-05 12:35:00,50.7,50.7,29.82,WSW,249,2.2,2.2,100,0.00,,---,0.08,VWS V14.01,2013-02-05 20:35:00,
2013-02-05 12:40:00,50.5,50.5,29.82,WSW,249,0.0,0.0,100,0.00,,---,0.08,VWS V14.01,2013-02-05 20:40:00,
2013-02-05 12:45:00,50.7,50.7,29.82,WSW,237,0.0,6.3,100,0.00,,---,0.08,VWS V14.01,2013-02-05 20:45:00,
2013-02-05 12:50:00,50.9,50.9,29.82,West,259,6.3,6.3,100,0.00,,---,0.08,VWS V14.01,2013-02-05 20:50:00,
2013-02-05 12:55:00,50.9,50.9,29.82,West,268,4.9,4.9,100,0.00,,---,0.08,VWS V14.01,2013-02-05 20:55:00,
2013-02-05 13:00:00,51.1,51.1,29.82,West,276,5.8,7.6,100,0.00,,---,0.08,VWS V14.01,2013-02-05 21:00:00,
2013-02-05 13:05:00,51.3,51.3,29.82,North,357,0.0,0.0,100,0.00,,---,0.08,VWS V14.01,2013-02-05 21:05:00,
2013-02-05 13:10:00,51.4,51.4,29.82,South,189,4.0,4.0,100,0.00,,---,0.08,VWS V14.01,2013-02-05 21:10:00,
2013-02-05 13:15:00,51.4,51.4,29.82,SW,226,4.0,4.0,100,0.00,,---,0.08,VWS V14.01,2013-02-05 21:15:00,
2013-02-05 13:20:00,51.4,51.4,29.82,WSW,244,3.1,3.1,100,0.00,,---,0.08,VWS V14.01,2013-02-05 21:20:00,
2013-02-05 13:25:00,51.4,51.4,29.82,SSW,207,2.7,3.1,100,0.00,,---,0.08,VWS V14.01,2013-02-05 21:25:00,
2013-02-05 13:30:00,51.3,51.3,29.82,WSW,243,0.0,0.0,100,0.00,,---,0.08,VWS V14.01,2013-02-05 21:30:00,
2013-02-05 13:35:00,51.4,51.4,29.82,West,268,2.2,5.4,100,0.00,,---,0.08,VWS V14.01,2013-02-05 21:35:00,
2013-02-05 13:40:00,51.4,51.4,29.82,West,268,2.7,3.6,100,0.00,,---,0.08,VWS V14.01,2013-02-05 21:40:00,
2013-02-05 13:45:00,51.3,51.3,29.82,WNW,287,0.0,0.0,100,0.00,,---,0.08,VWS V14.01,2013-02-05 21:45:00,
2013-02-05 13:50:00,51.3,51.3,29.82,ENE,69,0.0,0.0,100,0.00,,---,0.08,VWS V14.01,2013-02-05 21:50:00,
2013-02-05 13:55:00,51.3,51.3,29.82,WSW,246,0.0,2.7,100,0.00,,---,0.08,VWS V14.01,2013-02-05 21:55:00,
2013-02-05 14:00:00,51.1,51.1,29.82,SW,221,0.0,2.2,100,0.00,,---,0.08,VWS V14.01,2013-02-05 22:00:00,
2013-02-05 14:05:00,50.9,50.9,29.82,West,268,0.0,0.0,100,0.00,,---,0.08,VWS V14.01,2013-02-05 22:05:00,
2013-02-05 14:10:00,50.9,50.9,29.82,West,267,0.0,0.0,100,0.00,,---,0.08,VWS V14.01,2013-02-05 22:10:00,
2013-02-05 14:15:00,50.7,50.7,29.82,West,275,0.0,0.0,100,0.00,,---,0.08,VWS V14.01,2013-02-05 22:15:00,
2013-02-05 14:20:00,50.7,50.7,29.82,ENE,77,0.0,0.0,100,0.00,,---,0.08,VWS V14.01,2013-02-05 22:20:00,
2013-02-05 14:25:00,50.7,50.7,29.82,West,265,0.0,2.2,100,0.00,,---,0.08,VWS V14.01,2013-02-05 22:25:00,
2013-02-05 14:30:00,50.7,50.7,29.82,SSW,198,0.0,0.0,100,0.00,,---,0.08,VWS V14.01,2013-02-05 22:30:00,
2013-02-05 14:35:00,50.7,50.7,29.82,ENE,71,0.0,0.0,100,0.00,,---,0.08,VWS V14.01,2013-02-05 22:35:00,
2013-02-05 14:40:00,50.7,50.7,29.82,South,184,0.0,0.0,100,0.00,,---,0.08,VWS V14.01,2013-02-05 22:40:00,
2013-02-05 14:45:00,50.7,50.7,29.82,SW,236,0.0,0.0,100,0.00,,---,0.08,VWS V14.01,2013-02-05 22:45:00,
2013-02-05 14:50:00,50.7,50.7,29.82,West,261,0.0,0.0,100,0.00,,---,0.08,VWS V14.01,2013-02-05 22:50:00,
2013-02-05 14:55:00,50.7,50.7,29.82,SW,224,0.0,3.1,100,0.00,,---,0.08,VWS V14.01,2013-02-05 22:55:00,
2013-02-05 15:00:00,50.7,50.7,29.82,SW,236,0.0,0.0,100,0.00,,---,0.08,VWS V14.01,2013-02-05 23:00:00,
2013-02-05 15:05:00,50.7,50.7,29.82,NE,38,0.0,0.0,100,0.00,,---,0.08,VWS V14.01,2013-02-05 23:05:00,
2013-02-05 15:10:00,50.5,50.5,29.82,WSW,249,0.0,0.0,100,0.00,,---,0.08,VWS V14.01,2013-02-05 23:10:00,
2013-02-05 15:15:00,50.5,50.5,29.82,West,262,0.0,0.0,100,0.00,,---,0.08,VWS V14.01,2013-02-05 23:15:00,
2013-02-05 15:20:00,50.5,50.5,29.82,WSW,248,0.0,0.0,100,0.00,,---,0.08,VWS V14.01,2013-02-05 23:20:00,
2013-02-05 15:24:00,50.5,50.5,29.82,SSW,207,0.0,0.0,100,0.00,,---,0.08,VWS V14.01,2013-02-05 23:24:00,
2013-02-05 15:29:00,50.4,50.4,29.82,South,186,0.0,0.0,100,0.00,,---,0.08,VWS V14.01,2013-02-05 23:29:00,
2013-02-05 15:34:00,50.4,50.4,29.82,East,100,0.0,0.0,100,0.00,,---,0.08,VWS V14.01,2013-02-05 23:34:00,
2013-02-05 15:39:00,50.2,50.2,29.82,NNE,18,0.0,0.0,100,0.00,,---,0.08,VWS V14.01,2013-02-05 23:39:00,
2013-02-05 15:44:00,50.2,50.2,29.82,SSW,209,0.0,0.0,100,0.04,,---,0.12,VWS V14.01,2013-02-05 23:44:00,
2013-02-05 15:49:00,50.2,50.2,29.82,WSW,257,0.0,0.0,100,0.04,,---,0.12,VWS V14.01,2013-02-05 23:49:00,
2013-02-05 15:54:00,50.0,50.0,29.82,WSW,251,0.0,0.0,100,0.04,,---,0.12,VWS V14.01,2013-02-05 23:54:00,
2013-02-05 15:59:00,50.0,50.0,29.82,SW,234,0.0,0.0,100,0.04,,---,0.12,VWS V14.01,2013-02-05 23:59:00,
2013-02-05 16:04:00,49.8,49.8,29.82,ENE,60,0.0,0.0,100,0.04,,---,0.12,VWS V14.01,2013-02-06 00:04:00,
2013-02-05 16:09:00,49.8,49.8,29.82,SSE,156,0.0,0.0,100,0.04,,---,0.12,VWS V14.01,2013-02-06 00:09:00,
2013-02-05 16:14:00,49.8,49.8,29.82,ESE,118,0.0,0.0,100,0.04,,---,0.12,VWS V14.01,2013-02-06 00:14:00,
2013-02-05 16:19:00,49.6,49.6,29.82,ESE,118,0.0,0.0,100,0.04,,---,0.12,VWS V14.01,2013-02-06 00:19:00,
2013-02-05 16:24:00,49.6,49.6,29.82,ESE,118,0.0,0.0,100,0.04,,---,0.12,VWS V14.01,2013-02-06 00:24:00,
2013-02-05 16:29:00,49.6,49.6,29.82,SW,227,0.0,0.0,100,0.04,,---,0.12,VWS V14.01,2013-02-06 00:29:00,
2013-02-05 16:34:00,49.5,49.5,29.82,SSW,206,0.0,0.0,100,0.04,,---,0.12,VWS V14.01,2013-02-06 00:34:00,
2013-02-05 16:39:00,49.5,49.5,29.82,West,276,2.7,4.5,100,0.04,,---,0.12,VWS V14.01,2013-02-06 00:39:00,
2013-02-05 16:44:00,49.5,49.5,29.82,SSW,206,0.0,0.0,100,0.00,,---,0.12,VWS V14.01,2013-02-06 00:44:00,
2013-02-05 16:49:00,49.3,49.3,29.82,SSW,211,0.0,0.0,100,0.00,,---,0.12,VWS V14.01,2013-02-06 00:49:00,
2013-02-05 16:54:00,49.1,49.1,29.82,West,277,0.0,0.0,100,0.00,,---,0.12,VWS V14.01,2013-02-06 00:54:00,
2013-02-05 16:59:00,49.1,49.1,29.82,West,277,0.0,0.0,100,0.00,,---,0.12,VWS V14.01,2013-02-06 00:59:00,
2013-02-05 17:04:00,48.9,48.9,29.82,West,277,0.0,0.0,100,0.00,,---,0.12,VWS V14.01,2013-02-06 01:04:00,
2013-02-05 17:09:00,48.9,48.9,29.82,West,277,0.0,0.0,100,0.00,,---,0.12,VWS V14.01,2013-02-06 01:09:00,
2013-02-05 17:14:00,48.9,48.9,29.82,West,277,0.0,0.0,100,0.00,,---,0.12,VWS V14.01,2013-02-06 01:14:00,
2013-02-05 17:19:00,48.7,48.7,29.82,West,277,0.0,0.0,100,0.00,,---,0.12,VWS V14.01,2013-02-06 01:19:00,
2013-02-05 17:24:00,48.7,48.7,29.82,West,277,0.0,0.0,100,0.00,,---,0.12,VWS V14.01,2013-02-06 01:24:00,
2013-02-05 17:29:00,48.7,48.7,29.82,West,277,0.0,0.0,100,0.00,,---,0.12,VWS V14.01,2013-02-06 01:29:00,
2013-02-05 17:34:00,48.7,48.7,29.82,WSW,248,0.0,0.0,100,0.04,,---,0.16,VWS V14.01,2013-02-06 01:34:00,
2013-02-05 17:39:00,48.6,48.6,29.82,SW,216,0.0,0.0,100,0.04,,---,0.16,VWS V14.01,2013-02-06 01:39:00,
2013-02-05 17:44:00,48.6,48.6,29.82,SW,216,0.0,0.0,100,0.04,,---,0.16,VWS V14.01,2013-02-06 01:44:00,
2013-02-05 17:49:00,48.4,48.4,29.82,SW,224,0.0,0.0,100,0.04,,---,0.16,VWS V14.01,2013-02-06 01:49:00,
2013-02-05 17:54:00,48.2,48.2,29.82,SW,221,0.0,0.0,100,0.08,,---,0.20,VWS V14.01,2013-02-06 01:54:00,
2013-02-05 17:59:00,48.2,48.2,29.82,WSW,238,0.0,0.0,100,0.08,,---,0.20,VWS V14.01,2013-02-06 01:59:00,
2013-02-05 18:04:00,48.0,48.0,29.82,WSW,244,0.0,0.0,100,0.08,,---,0.20,VWS V14.01,2013-02-06 02:04:00,
2013-02-05 18:09:00,48.0,48.0,29.82,SSW,198,0.0,0.0,100,0.08,,---,0.20,VWS V14.01,2013-02-06 02:09:00,
2013-02-05 18:14:00,48.0,48.0,29.82,NE,40,0.0,0.0,100,0.08,,---,0.20,VWS V14.01,2013-02-06 02:14:00,
2013-02-05 18:19:00,47.8,47.8,29.82,SSW,205,0.0,0.0,100,0.08,,---,0.20,VWS V14.01,2013-02-06 02:19:00,
2013-02-05 18:24:00,47.8,47.8,29.82,SSW,205,0.0,0.0,100,0.08,,---,0.20,VWS V14.01,2013-02-06 02:24:00,
2013-02-05 18:29:00,47.8,47.8,29.82,SSE,159,0.0,0.0,100,0.08,,---,0.20,VWS V14.01,2013-02-06 02:29:00,
2013-02-05 18:34:00,47.7,47.7,29.82,SSE,158,0.0,0.0,100,0.04,,---,0.20,VWS V14.01,2013-02-06 02:34:00,
2013-02-05 18:39:00,47.7,47.7,29.82,SSE,158,0.0,0.0,100,0.04,,---,0.20,VWS V14.01,2013-02-06 02:39:00,
2013-02-05 18:44:00,47.5,47.5,29.82,SSW,197,0.0,0.0,100,0.04,,---,0.20,VWS V14.01,2013-02-06 02:44:00,
2013-02-05 18:49:00,47.5,47.5,29.82,WNW,282,0.0,2.2,100,0.04,,---,0.20,VWS V14.01,2013-02-06 02:49:00,
2013-02-05 18:54:00,47.5,47.5,29.82,SSW,192,0.0,0.0,100,0.00,,---,0.20,VWS V14.01,2013-02-06 02:54:00,
2013-02-05 18:59:00,47.5,47.5,29.82,SSW,205,0.0,0.0,100,0.00,,---,0.20,VWS V14.01,2013-02-06 02:59:00,
2013-02-05 19:04:00,47.5,47.5,29.82,WSW,249,0.0,0.0,100,0.00,,---,0.20,VWS V14.01,2013-02-06 03:04:00,
2013-02-05 19:09:00,47.5,47.5,29.82,SW,235,0.0,0.0,100,0.00,,---,0.20,VWS V14.01,2013-02-06 03:09:00,
2013-02-05 19:14:00,47.5,47.5,29.82,West,260,0.0,0.0,100,0.00,,---,0.20,VWS V14.01,2013-02-06 03:14:00,
2013-02-05 19:19:00,47.5,47.5,29.82,ESE,117,0.0,3.1,100,0.00,,---,0.20,VWS V14.01,2013-02-06 03:19:00,
2013-02-05 19:24:00,47.5,47.5,29.82,SW,230,0.0,4.0,100,0.00,,---,0.20,VWS V14.01,2013-02-06 03:24:00,
2013-02-05 19:29:00,47.5,47.5,29.85,SW,222,3.1,3.1,100,0.00,,---,0.20,VWS V14.01,2013-02-06 03:29:00,
2013-02-05 19:34:00,47.5,47.5,29.85,West,274,0.0,0.0,100,0.00,,---,0.20,VWS V14.01,2013-02-06 03:34:00,
2013-02-05 19:39:00,47.5,47.5,29.85,WNW,291,0.0,0.0,100,0.00,,---,0.20,VWS V14.01,2013-02-06 03:39:00,
2013-02-05 19:44:00,47.3,47.3,29.85,West,274,0.0,0.0,100,0.00,,---,0.20,VWS V14.01,2013-02-06 03:44:00,
2013-02-05 19:49:00,47.3,47.3,29.85,WSW,251,0.0,2.7,100,0.00,,---,0.20,VWS V14.01,2013-02-06 03:49:00,
2013-02-05 19:54:00,47.3,47.3,29.85,West,262,4.0,4.0,100,0.00,,---,0.20,VWS V14.01,2013-02-06 03:54:00,
2013-02-05 19:59:00,47.1,47.1,29.85,ESE,105,3.1,3.1,100,0.00,,---,0.20,VWS V14.01,2013-02-06 03:59:00,
2013-02-05 20:04:00,46.9,46.9,29.85,SSW,198,0.0,0.0,100,0.00,,---,0.20,VWS V14.01,2013-02-06 04:04:00,
2013-02-05 20:09:00,46.8,46.8,29.85,West,276,0.0,0.0,100,0.00,,---,0.20,VWS V14.01,2013-02-06 04:09:00,
2013-02-05 20:14:00,46.8,46.8,29.85,SW,235,3.1,3.1,100,0.00,,---,0.20,VWS V14.01,2013-02-06 04:14:00,
2013-02-05 20:19:00,46.8,46.8,29.85,WSW,256,0.0,3.6,100,0.00,,---,0.20,VWS V14.01,2013-02-06 04:19:00,
2013-02-05 20:24:00,46.8,46.8,29.85,WSW,239,2.2,2.2,100,0.00,,---,0.20,VWS V14.01,2013-02-06 04:24:00,
2013-02-05 20:29:00,46.8,46.8,54.95,WNW,292,3.1,3.1,100,0.00,,---,0.20,VWS V14.01,2013-02-06 04:29:00,
2013-02-05 20:34:00,46.6,46.6,54.95,South,185,2.7,3.1,100,0.00,,---,0.20,VWS V14.01,2013-02-06 04:34:00,
2013-02-05 20:39:00,46.6,46.6,29.85,WSW,242,2.2,3.6,100,0.00,,---,0.20,VWS V14.01,2013-02-06 04:39:00,
2013-02-05 20:44:00,46.6,46.6,29.85,West,275,2.7,3.1,100,0.00,,---,0.20,VWS V14.01,2013-02-06 04:44:00,
2013-02-05 20:49:00,46.4,46.4,29.85,ESE,109,0.0,0.0,100,0.00,,---,0.20,VWS V14.01,2013-02-06 04:49:00,
2013-02-05 20:54:00,46.4,46.4,29.85,SSW,200,0.0,0.0,100,0.00,,---,0.20,VWS V14.01,2013-02-06 04:54:00,
2013-02-05 20:59:00,46.4,46.4,29.85,SSW,211,0.0,3.6,100,0.00,,---,0.20,VWS V14.01,2013-02-06 04:59:00,
2013-02-05 21:00:00,46.4,46.4,29.85,SSW,211,0.0,3.6,100,0.00,,---,0.20,VWS V14.01,2013-02-06 05:00:00,
2013-02-05 21:05:00,46.4,46.4,29.85,SSE,159,0.0,0.0,100,0.00,,---,0.20,VWS V14.01,2013-02-06 05:05:00,
2013-02-05 21:10:00,46.2,46.2,29.85,SSE,159,0.0,0.0,100,0.00,,---,0.20,VWS V14.01,2013-02-06 05:10:00,
2013-02-05 21:15:00,46.2,46.2,29.85,SE,140,0.0,0.0,100,0.00,,---,0.20,VWS V14.01,2013-02-06 05:15:00,
2013-02-05 21:20:00,46.2,46.2,29.85,SW,227,0.0,0.0,100,0.00,,---,0.20,VWS V14.01,2013-02-06 05:20:00,
2013-02-05 21:25:00,46.0,46.0,29.85,West,268,0.0,0.0,100,0.00,,---,0.20,VWS V14.01,2013-02-06 05:25:00,
2013-02-05 21:30:00,46.0,46.0,29.85,West,262,0.0,0.0,100,0.00,,---,0.20,VWS V14.01,2013-02-06 05:30:00,
2013-02-05 21:35:00,46.0,46.0,29.85,SW,220,0.0,0.0,100,0.00,,---,0.20,VWS V14.01,2013-02-06 05:35:00,
2013-02-05 21:40:00,46.0,46.0,29.88,SW,220,0.0,0.0,100,0.00,,---,0.20,VWS V14.01,2013-02-06 05:40:00,
2013-02-05 21:45:00,46.0,46.0,29.88,WSW,237,0.0,2.2,100,0.00,,---,0.20,VWS V14.01,2013-02-06 05:45:00,
2013-02-05 21:50:00,46.0,46.0,29.88,West,279,3.1,4.5,100,0.00,,---,0.20,VWS V14.01,2013-02-06 05:50:00,
2013-02-05 21:55:00,46.0,46.0,29.88,WSW,253,2.7,2.7,100,0.00,,---,0.20,VWS V14.01,2013-02-06 05:55:00,
2013-02-05 22:00:00,46.0,46.0,29.88,WSW,255,2.2,3.1,100,0.00,,---,0.20,VWS V14.01,2013-02-06 06:00:00,
2013-02-05 22:05:00,46.0,46.0,29.88,WSW,257,0.0,0.0,100,0.00,,---,0.20,VWS V14.01,2013-02-06 06:05:00,
2013-02-05 22:10:00,46.0,46.0,29.88,WSW,248,0.0,0.0,100,0.00,,---,0.20,VWS V14.01,2013-02-06 06:10:00,
2013-02-05 22:15:00,46.0,46.0,29.88,South,185,0.0,0.0,100,0.00,,---,0.20,VWS V14.01,2013-02-06 06:15:00,
2013-02-05 22:20:00,46.0,46.0,29.88,West,265,0.0,0.0,100,0.00,,---,0.20,VWS V14.01,2013-02-06 06:20:00,
2013-02-05 22:25:00,46.0,46.0,29.88,SW,229,0.0,0.0,100,0.00,,---,0.20,VWS V14.01,2013-02-06 06:25:00,
2013-02-05 22:30:00,46.0,46.0,29.88,SSW,205,0.0,0.0,100,0.00,,---,0.20,VWS V14.01,2013-02-06 06:30:00,
2013-02-05 22:35:00,46.0,46.0,29.88,SW,217,2.7,6.3,100,0.00,,---,0.20,VWS V14.01,2013-02-06 06:35:00,
2013-02-05 22:40:00,46.0,46.0,29.88,SW,226,0.0,2.2,100,0.00,,---,0.20,VWS V14.01,2013-02-06 06:40:00,
2013-02-05 22:45:00,46.0,46.0,29.88,NW,324,0.0,0.0,100,0.00,,---,0.20,VWS V14.01,2013-02-06 06:45:00,
2013-02-05 22:50:00,46.0,46.0,29.88,NW,306,0.0,0.0,100,0.00,,---,0.20,VWS V14.01,2013-02-06 06:50:00,
2013-02-05 22:55:00,46.0,46.0,29.88,SW,222,0.0,0.0,100,0.00,,---,0.20,VWS V14.01,2013-02-06 06:55:00,
2013-02-05 23:00:00,46.2,46.2,29.88,WNW,292,2.7,2.7,100,0.00,,---,0.20,VWS V14.01,2013-02-06 07:00:00,
2013-02-05 23:05:00,46.2,46.2,29.88,WNW,282,0.0,0.0,100,0.00,,---,0.20,VWS V14.01,2013-02-06 07:05:00,
2013-02-05 23:10:00,46.2,46.2,29.88,SW,232,0.0,0.0,100,0.00,,---,0.20,VWS V14.01,2013-02-06 07:10:00,
2013-02-05 23:15:00,46.2,46.2,29.88,SW,232,0.0,0.0,100,0.00,,---,0.20,VWS V14.01,2013-02-06 07:15:00,
2013-02-05 23:20:00,46.2,46.2,29.88,West,278,0.0,3.6,100,0.00,,---,0.20,VWS V14.01,2013-02-06 07:20:00,
2013-02-05 23:25:00,46.2,46.2,29.88,West,279,0.0,0.0,100,0.00,,---,0.20,VWS V14.01,2013-02-06 07:25:00,
2013-02-05 23:30:00,46.2,46.2,29.88,WSW,247,0.0,3.1,100,0.00,,---,0.20,VWS V14.01,2013-02-06 07:30:00,
2013-02-05 23:35:00,46.2,46.2,29.88,WNW,287,0.0,0.0,100,0.00,,---,0.20,VWS V14.01,2013-02-06 07:35:00,
2013-02-05 23:40:00,46.2,46.2,29.88,West,281,0.0,0.0,100,0.00,,---,0.20,VWS V14.01,2013-02-06 07:40:00,
2013-02-05 23:45:00,46.2,46.2,29.88,West,259,0.0,0.0,100,0.00,,---,0.20,VWS V14.01,2013-02-06 07:45:00,
2013-02-05 23:50:00,46.2,46.2,29.88,SSE,153,5.4,5.4,100,0.00,,---,0.20,VWS V14.01,2013-02-06 07:50:00,
2013-02-05 23:55:00,46.2,46.2,29.91,SW,223,0.0,3.1,100,0.00,,---,0.20,VWS V14.01,2013-02-06 07:55:00,